Time;durP1;ratioP1;P1;durP2;ratioP2;P2;SDS_P1;SDS_P2;PMS_P1;PMS_P2;Temp;Humidity;BMP_temperature;BMP_pressure;BME280_temperature;BME280_humidity;BME280_pressure;Samples;Min_cycle;Max_cycle;Signal;HPM_P1;HPM_P2
2023/08/12 00:01:59;;;;;;;12.07;4.55;;;;;;;;;;4988423;28;20042;-80
2023/08/12 00:04:25;;;;;;;8.43;4.38;;;;;;;;;;4986755;28;20137;-80
2023/08/12 00:06:52;;;;;;;7.65;4.53;;;;;;;;;;4987426;28;20066;-80
2023/08/12 00:09:19;;;;;;;6.80;4.15;;;;;;;;;;4986443;28;20058;-78
2023/08/12 00:11:46;;;;;;;6.60;4.00;;;;;;;;;;5006293;28;20105;-80
2023/08/12 00:14:13;;;;;;;8.95;4.22;;;;;;;;;;4988238;28;20042;-78
2023/08/12 00:16:39;;;;;;;9.00;4.38;;;;;;;;;;4986708;28;20039;-78
2023/08/12 00:19:08;;;;;;;9.57;5.00;;;;;;;;;;5004641;28;20042;-79
2023/08/12 00:21:35;;;;;;;7.50;3.95;;;;;;;;;;4989403;28;20153;-79
2023/08/12 00:24:02;;;;;;;6.22;4.40;;;;;;;;;;5011055;28;20069;-80
2023/08/12 00:26:28;;;;;;;7.57;4.30;;;;;;;;;;4988331;28;20543;-80
2023/08/12 00:28:55;;;;;;;7.47;3.80;;;;;;;;;;4992490;28;20045;-81
2023/08/12 00:31:22;;;;;;;6.95;4.15;;;;;;;;;;4989565;28;20133;-81
2023/08/12 00:33:49;;;;;;;7.68;3.83;;;;;;;;;;4990055;28;20097;-81
2023/08/12 00:36:15;;;;;;;6.20;3.90;;;;;;;;;;4990581;28;20594;-80
2023/08/12 00:38:42;;;;;;;5.18;3.63;;;;;;;;;;4986978;28;20038;-80
2023/08/12 00:41:09;;;;;;;8.32;4.03;;;;;;;;;;4991222;28;20528;-80
2023/08/12 00:43:35;;;;;;;7.03;3.70;;;;;;;;;;4972797;28;20049;-79
2023/08/12 00:46:02;;;;;;;6.43;3.70;;;;;;;;;;4989078;28;20065;-80
2023/08/12 00:48:31;;;;;;;6.05;3.47;;;;;;;;;;4973486;28;20046;-80
2023/08/12 00:50:58;;;;;;;5.75;3.60;;;;;;;;;;4990103;28;20046;-80
2023/08/12 00:53:25;;;;;;;6.55;3.65;;;;;;;;;;4987110;28;20089;-80
2023/08/12 00:55:52;;;;;;;6.50;3.90;;;;;;;;;;5007493;28;20034;-81
2023/08/12 00:58:18;;;;;;;7.70;4.15;;;;;;;;;;4989752;28;20046;-79
2023/08/12 01:00:45;;;;;;;5.60;3.50;;;;;;;;;;4989739;28;20107;-79
2023/08/12 01:03:12;;;;;;;9.15;3.70;;;;;;;;;;4997303;28;20035;-79
2023/08/12 01:05:40;;;;;;;6.47;3.72;;;;;;;;;;5001471;28;20062;-79
2023/08/12 01:08:09;;;;;;;9.93;4.07;;;;;;;;;;5002707;28;20053;-79
2023/08/12 01:10:39;;;;;;;7.38;4.13;;;;;;;;;;5000275;28;20054;-78
2023/08/12 01:13:18;;;;;;;8.23;3.60;;;;;;;;;;5002261;28;20046;-78
2023/08/12 01:15:45;;;;;;;6.47;3.88;;;;;;;;;;5001972;28;20054;-80
2023/08/12 01:18:13;;;;;;;6.85;3.83;;;;;;;;;;5006079;28;20070;-77
2023/08/12 01:20:40;;;;;;;8.60;4.05;;;;;;;;;;5003265;28;20065;-80
2023/08/12 01:23:16;;;;;;;6.03;3.60;;;;;;;;;;4999249;28;20053;-79
2023/08/12 01:25:43;;;;;;;6.75;3.92;;;;;;;;;;4991273;28;20046;-79
2023/08/12 01:28:10;;;;;;;6.78;4.18;;;;;;;;;;4995598;28;20043;-78
2023/08/12 01:30:43;;;;;;;12.07;3.80;;;;;;;;;;4994955;28;20121;-80
2023/08/12 01:33:32;;;;;;;5.93;4.15;;;;;;;;;;4990493;28;21058;-79
2023/08/12 01:36:14;;;;;;;7.90;4.00;;;;;;;;;;4995856;28;20057;-79
2023/08/12 01:38:41;;;;;;;6.95;4.53;;;;;;;;;;5019506;28;21041;-80
2023/08/12 01:41:10;;;;;;;9.00;3.95;;;;;;;;;;4969947;28;20054;-79
2023/08/12 01:43:37;;;;;;;10.55;4.53;;;;;;;;;;4989790;28;20070;-78
2023/08/12 01:46:04;;;;;;;7.10;3.92;;;;;;;;;;4990733;28;20054;-81
2023/08/12 01:48:31;;;;;;;6.55;4.53;;;;;;;;;;4975380;28;20046;-79
2023/08/12 01:50:57;;;;;;;6.60;4.18;;;;;;;;;;4990822;28;20038;-80
2023/08/12 01:53:24;;;;;;;6.13;4.00;;;;;;;;;;4991272;28;20038;-79
2023/08/12 01:55:51;;;;;;;6.72;4.10;;;;;;;;;;4989314;28;20066;-80
2023/08/12 01:58:18;;;;;;;6.10;4.47;;;;;;;;;;4988531;28;20050;-80
2023/08/12 02:00:45;;;;;;;8.43;4.68;;;;;;;;;;5011896;28;20847;-79
2023/08/12 02:03:12;;;;;;;8.93;4.68;;;;;;;;;;4989618;28;20061;-81
2023/08/12 02:05:39;;;;;;;6.95;4.13;;;;;;;;;;4991721;28;20479;-80
2023/08/12 02:08:05;;;;;;;8.10;3.95;;;;;;;;;;4992395;28;20161;-81
2023/08/12 02:10:34;;;;;;;6.90;3.78;;;;;;;;;;4992835;28;20053;-79
2023/08/12 02:13:02;;;;;;;7.40;3.88;;;;;;;;;;4992213;28;20853;-80
2023/08/12 02:15:29;;;;;;;5.95;4.00;;;;;;;;;;4993937;28;20420;-79
2023/08/12 02:17:56;;;;;;;6.57;4.00;;;;;;;;;;4993619;28;20061;-79
2023/08/12 02:20:23;;;;;;;8.88;4.60;;;;;;;;;;4992191;28;20054;-78
2023/08/12 02:22:49;;;;;;;6.95;3.97;;;;;;;;;;4991856;28;20057;-78
2023/08/12 02:25:16;;;;;;;6.07;3.88;;;;;;;;;;4987895;28;20054;-77
2023/08/12 02:27:43;;;;;;;7.85;3.72;;;;;;;;;;4991478;28;20109;-80
2023/08/12 02:30:10;;;;;;;7.30;4.00;;;;;;;;;;4992358;28;21490;-79
2023/08/12 02:32:37;;;;;;;9.52;3.80;;;;;;;;;;4989402;28;20080;-80
2023/08/12 02:35:04;;;;;;;6.72;4.10;;;;;;;;;;5008728;28;20189;-80
2023/08/12 02:37:31;;;;;;;6.93;3.40;;;;;;;;;;4990399;28;20074;-79
2023/08/12 02:39:57;;;;;;;5.57;3.90;;;;;;;;;;4993817;28;20049;-80
2023/08/12 02:42:24;;;;;;;6.00;3.70;;;;;;;;;;4992333;28;20046;-80
2023/08/12 02:44:52;;;;;;;5.60;3.53;;;;;;;;;;4990560;28;20128;-79
2023/08/12 02:47:19;;;;;;;5.20;3.45;;;;;;;;;;4987790;28;20146;-80
2023/08/12 02:49:46;;;;;;;5.43;3.47;;;;;;;;;;4993835;28;20046;-80
2023/08/12 02:52:12;;;;;;;4.80;3.00;;;;;;;;;;4992781;28;20046;-80
2023/08/12 02:54:39;;;;;;;4.95;3.13;;;;;;;;;;4989079;28;20561;-80
2023/08/12 02:57:06;;;;;;;4.65;3.03;;;;;;;;;;4989615;28;20046;-79
2023/08/12 02:59:33;;;;;;;7.72;3.58;;;;;;;;;;4991112;28;20050;-79
2023/08/12 03:02:00;;;;;;;4.65;3.28;;;;;;;;;;4990962;28;20064;-78
2023/08/12 03:04:26;;;;;;;5.40;3.45;;;;;;;;;;4986411;28;20113;-78
2023/08/12 03:06:53;;;;;;;7.38;3.50;;;;;;;;;;4990144;28;20050;-79
2023/08/12 03:09:20;;;;;;;6.15;3.13;;;;;;;;;;4990712;28;20085;-78
2023/08/12 03:11:47;;;;;;;6.03;3.58;;;;;;;;;;4991312;28;20073;-77
2023/08/12 03:14:14;;;;;;;7.32;3.42;;;;;;;;;;4989304;28;20443;-78
2023/08/12 03:16:41;;;;;;;6.60;3.72;;;;;;;;;;4990225;28;20114;-80
2023/08/12 03:19:08;;;;;;;5.70;3.38;;;;;;;;;;4991335;28;20098;-78
2023/08/12 03:21:38;;;;;;;8.85;3.55;;;;;;;;;;4989536;28;20042;-81
2023/08/12 03:24:05;;;;;;;7.53;3.03;;;;;;;;;;4989657;28;20038;-80
2023/08/12 03:26:31;;;;;;;6.75;3.22;;;;;;;;;;4970893;28;20093;-81
2023/08/12 03:28:58;;;;;;;4.57;3.28;;;;;;;;;;4994817;28;20069;-79
2023/08/12 03:31:26;;;;;;;7.00;3.35;;;;;;;;;;4987139;28;20057;-78
2023/08/12 03:33:53;;;;;;;7.25;3.58;;;;;;;;;;4986839;28;20138;-79
2023/08/12 03:36:20;;;;;;;5.00;3.22;;;;;;;;;;4984829;28;20061;-78
2023/08/12 03:38:47;;;;;;;7.15;3.63;;;;;;;;;;4987492;28;20046;-80
2023/08/12 03:41:18;;;;;;;7.13;3.70;;;;;;;;;;4985235;28;20061;-80
2023/08/12 03:43:45;;;;;;;7.07;3.63;;;;;;;;;;4986812;28;20042;-80
2023/08/12 03:46:13;;;;;;;4.90;3.20;;;;;;;;;;4991512;28;20566;-80
2023/08/12 03:48:40;;;;;;;5.47;3.55;;;;;;;;;;4988423;28;20043;-79
2023/08/12 03:51:06;;;;;;;4.65;3.15;;;;;;;;;;4988083;28;20057;-80
2023/08/12 03:53:33;;;;;;;6.50;3.25;;;;;;;;;;4983800;28;20082;-79
2023/08/12 03:56:00;;;;;;;6.40;3.05;;;;;;;;;;4987104;28;20093;-79
2023/08/12 03:58:28;;;;;;;5.10;3.22;;;;;;;;;;4987459;28;20805;-79
2023/08/12 04:00:55;;;;;;;8.38;3.08;;;;;;;;;;4988808;28;20046;-78
2023/08/12 04:03:22;;;;;;;4.53;2.75;;;;;;;;;;4987015;28;20050;-79
2023/08/12 04:05:52;;;;;;;6.45;3.25;;;;;;;;;;4989000;28;20069;-79
2023/08/12 04:08:21;;;;;;;5.53;3.40;;;;;;;;;;4991064;28;20050;-78
2023/08/12 04:10:47;;;;;;;5.80;2.67;;;;;;;;;;4989972;28;20042;-80
2023/08/12 04:13:14;;;;;;;5.10;3.00;;;;;;;;;;4988488;28;20420;-80
2023/08/12 04:15:42;;;;;;;7.10;3.83;;;;;;;;;;4989966;28;20050;-78
2023/08/12 04:18:09;;;;;;;5.75;3.20;;;;;;;;;;4990418;28;20072;-79
2023/08/12 04:20:36;;;;;;;5.68;3.10;;;;;;;;;;4988591;28;20058;-78
2023/08/12 04:23:03;;;;;;;6.50;2.85;;;;;;;;;;4990689;28;20050;-79
2023/08/12 04:25:30;;;;;;;5.00;3.28;;;;;;;;;;4985860;28;20062;-78
2023/08/12 04:27:56;;;;;;;4.32;2.60;;;;;;;;;;4988469;28;20053;-78
2023/08/12 04:30:24;;;;;;;4.38;2.90;;;;;;;;;;4971951;28;21471;-80
2023/08/12 04:32:50;;;;;;;6.63;3.20;;;;;;;;;;4988123;28;20042;-80
2023/08/12 04:35:17;;;;;;;7.45;3.30;;;;;;;;;;4988393;28;20061;-80
2023/08/12 04:37:44;;;;;;;5.00;2.92;;;;;;;;;;4990895;28;20423;-79
2023/08/12 04:40:11;;;;;;;5.47;3.30;;;;;;;;;;4993290;28;20081;-78
2023/08/12 04:42:39;;;;;;;5.05;3.20;;;;;;;;;;4990297;28;20149;-80
2023/08/12 04:45:07;;;;;;;6.07;3.28;;;;;;;;;;4993576;28;20069;-79
2023/08/12 04:47:34;;;;;;;4.18;2.83;;;;;;;;;;4989823;28;20070;-80
2023/08/12 04:50:01;;;;;;;5.03;3.00;;;;;;;;;;4993370;28;20567;-80
2023/08/12 04:52:29;;;;;;;5.25;2.80;;;;;;;;;;4993501;28;20660;-78
2023/08/12 04:54:56;;;;;;;5.85;2.90;;;;;;;;;;4993564;28;20042;-79
2023/08/12 04:57:24;;;;;;;4.90;3.10;;;;;;;;;;5005810;28;21334;-79
2023/08/12 04:59:51;;;;;;;9.18;2.90;;;;;;;;;;4992883;28;20042;-78
2023/08/12 05:02:21;;;;;;;8.98;3.88;;;;;;;;;;4989024;28;20061;-78
2023/08/12 05:04:49;;;;;;;4.90;3.10;;;;;;;;;;4991163;28;20042;-80
2023/08/12 05:07:16;;;;;;;5.60;2.90;;;;;;;;;;4990046;28;20057;-80
2023/08/12 05:09:46;;;;;;;6.00;3.15;;;;;;;;;;4993328;28;20038;-79
2023/08/12 05:12:14;;;;;;;5.00;3.38;;;;;;;;;;4972881;28;20038;-80
2023/08/12 05:14:41;;;;;;;5.55;3.58;;;;;;;;;;4990093;28;20109;-80
2023/08/12 05:17:08;;;;;;;5.40;3.10;;;;;;;;;;4988413;28;20049;-80
2023/08/12 05:19:37;;;;;;;7.85;3.17;;;;;;;;;;5015885;28;20073;-81
2023/08/12 05:22:04;;;;;;;4.63;3.03;;;;;;;;;;4990600;28;20110;-76
2023/08/12 05:24:31;;;;;;;8.02;3.10;;;;;;;;;;4991999;28;20128;-80
2023/08/12 05:26:58;;;;;;;5.22;2.88;;;;;;;;;;4986245;28;20053;-79
2023/08/12 05:29:25;;;;;;;4.22;2.53;;;;;;;;;;4992107;28;20053;-77
2023/08/12 05:31:53;;;;;;;3.97;2.63;;;;;;;;;;4991509;28;20042;-80
2023/08/12 05:34:19;;;;;;;4.00;2.58;;;;;;;;;;4989864;28;20050;-78
2023/08/12 05:36:46;;;;;;;4.05;3.03;;;;;;;;;;4991687;28;20050;-78
2023/08/12 05:39:16;;;;;;;5.50;3.05;;;;;;;;;;4990482;28;20055;-78
2023/08/12 05:41:42;;;;;;;7.13;2.78;;;;;;;;;;4986975;28;20045;-78
2023/08/12 05:44:09;;;;;;;5.15;2.88;;;;;;;;;;4991189;28;20073;-78
2023/08/12 05:46:36;;;;;;;10.73;2.95;;;;;;;;;;4987402;28;20499;-78
2023/08/12 05:49:03;;;;;;;10.27;3.33;;;;;;;;;;4993216;28;20065;-77
2023/08/12 05:51:30;;;;;;;4.28;2.95;;;;;;;;;;4989033;28;20105;-78
2023/08/12 05:53:57;;;;;;;5.10;2.65;;;;;;;;;;4989186;28;20046;-79
2023/08/12 05:56:23;;;;;;;6.30;2.85;;;;;;;;;;4984833;28;20062;-79
2023/08/12 05:58:50;;;;;;;5.25;2.67;;;;;;;;;;4988162;28;20050;-79
2023/08/12 06:01:17;;;;;;;4.35;2.58;;;;;;;;;;4988465;28;20077;-79
2023/08/12 06:03:44;;;;;;;5.15;2.63;;;;;;;;;;4990962;28;20046;-80
2023/08/12 06:06:11;;;;;;;5.70;2.63;;;;;;;;;;4997281;28;20042;-80
2023/08/12 06:08:38;;;;;;;4.47;2.97;;;;;;;;;;4959488;28;20046;-80
2023/08/12 06:11:04;;;;;;;5.15;2.88;;;;;;;;;;4993146;28;20582;-76
2023/08/12 06:13:31;;;;;;;5.63;2.47;;;;;;;;;;4994084;28;20136;-77
2023/08/12 06:15:58;;;;;;;4.30;2.47;;;;;;;;;;4997913;28;20414;-78
2023/08/12 06:18:25;;;;;;;5.05;2.60;;;;;;;;;;5000910;28;20053;-79
2023/08/12 06:20:52;;;;;;;5.25;2.40;;;;;;;;;;4996784;28;20477;-79
2023/08/12 06:23:18;;;;;;;4.93;2.35;;;;;;;;;;4998253;28;20058;-79
2023/08/12 06:25:45;;;;;;;3.85;2.40;;;;;;;;;;4996471;28;20048;-80
2023/08/12 06:28:11;;;;;;;5.22;2.58;;;;;;;;;;4997077;28;20039;-79
2023/08/12 06:30:38;;;;;;;3.33;2.50;;;;;;;;;;4985045;28;20073;-80
2023/08/12 06:33:05;;;;;;;4.15;2.58;;;;;;;;;;4997432;28;20050;-77
2023/08/12 06:35:32;;;;;;;4.00;2.08;;;;;;;;;;5003374;28;20050;-78
2023/08/12 06:37:59;;;;;;;3.75;2.20;;;;;;;;;;5005986;28;21286;-78
2023/08/12 06:40:27;;;;;;;4.28;2.45;;;;;;;;;;5003711;28;20058;-79
2023/08/12 06:42:54;;;;;;;5.45;2.22;;;;;;;;;;4989952;28;20046;-80
2023/08/12 06:45:21;;;;;;;3.97;2.67;;;;;;;;;;5001822;28;20057;-79
2023/08/12 06:47:47;;;;;;;4.13;2.30;;;;;;;;;;5003652;28;20050;-79
2023/08/12 06:50:14;;;;;;;3.60;2.58;;;;;;;;;;5003777;28;20143;-78
2023/08/12 06:52:41;;;;;;;5.18;2.22;;;;;;;;;;5001073;28;20073;-79
2023/08/12 06:55:07;;;;;;;7.10;2.28;;;;;;;;;;4996509;28;20517;-80
2023/08/12 06:57:34;;;;;;;3.30;2.15;;;;;;;;;;4979821;28;20050;-78
2023/08/12 07:00:01;;;;;;;6.00;2.33;;;;;;;;;;4997744;28;20034;-80
2023/08/12 07:02:29;;;;;;;3.78;2.35;;;;;;;;;;4994837;28;20101;-79
2023/08/12 07:04:56;;;;;;;5.97;2.38;;;;;;;;;;4995517;28;20661;-80
2023/08/12 07:07:23;;;;;;;4.80;2.50;;;;;;;;;;4995389;28;20050;-80
2023/08/12 07:09:49;;;;;;;3.47;2.00;;;;;;;;;;4996993;28;20130;-80
2023/08/12 07:12:16;;;;;;;4.05;2.42;;;;;;;;;;4997526;28;20046;-78
2023/08/12 07:14:43;;;;;;;2.97;2.13;;;;;;;;;;4997752;28;20129;-78
2023/08/12 07:17:10;;;;;;;4.80;2.83;;;;;;;;;;5002128;28;20049;-78
2023/08/12 07:19:39;;;;;;;4.18;2.60;;;;;;;;;;5002985;28;20113;-80
2023/08/12 07:22:06;;;;;;;4.07;2.40;;;;;;;;;;4997107;28;20096;-78
2023/08/12 07:24:33;;;;;;;3.45;2.00;;;;;;;;;;4991741;28;20443;-79
2023/08/12 07:26:59;;;;;;;3.35;1.92;;;;;;;;;;4992721;28;20112;-79
2023/08/12 07:29:26;;;;;;;3.15;2.30;;;;;;;;;;4995154;28;20061;-78
2023/08/12 07:31:53;;;;;;;3.40;1.88;;;;;;;;;;4994202;28;20130;-78
2023/08/12 07:34:20;;;;;;;2.67;1.77;;;;;;;;;;4976482;28;20054;-78
2023/08/12 07:36:46;;;;;;;2.90;1.67;;;;;;;;;;4993770;28;20046;-78
2023/08/12 07:39:13;;;;;;;2.20;1.60;;;;;;;;;;4993754;28;20046;-77
2023/08/12 07:41:40;;;;;;;4.47;1.65;;;;;;;;;;4987012;28;20045;-78
2023/08/12 07:44:07;;;;;;;2.15;1.52;;;;;;;;;;4993185;28;20065;-78
2023/08/12 07:46:33;;;;;;;2.13;1.50;;;;;;;;;;4981463;28;20068;-77
2023/08/12 07:49:00;;;;;;;2.85;1.90;;;;;;;;;;4992760;28;20050;-77
2023/08/12 07:51:27;;;;;;;2.88;1.73;;;;;;;;;;4991603;28;20150;-78
2023/08/12 07:53:54;;;;;;;2.42;1.52;;;;;;;;;;4992899;28;20061;-77
2023/08/12 07:56:20;;;;;;;4.22;1.70;;;;;;;;;;4989790;28;20192;-78
2023/08/12 07:58:47;;;;;;;3.40;1.92;;;;;;;;;;4992694;28;20070;-80
2023/08/12 08:01:14;;;;;;;2.42;1.52;;;;;;;;;;4988400;28;20043;-78
2023/08/12 08:03:44;;;;;;;3.97;1.50;;;;;;;;;;4991686;28;21418;-78
2023/08/12 08:06:11;;;;;;;5.30;1.60;;;;;;;;;;4991399;28;20073;-77
2023/08/12 08:08:38;;;;;;;3.85;1.52;;;;;;;;;;4991475;28;20038;-77
2023/08/12 08:11:05;;;;;;;2.20;1.67;;;;;;;;;;4990258;28;20454;-78
2023/08/12 08:13:31;;;;;;;2.20;1.67;;;;;;;;;;4965664;28;20058;-77
2023/08/12 08:15:58;;;;;;;2.65;1.63;;;;;;;;;;4990055;28;20539;-78
2023/08/12 08:18:25;;;;;;;2.75;1.60;;;;;;;;;;4989540;28;20058;-77
2023/08/12 08:20:54;;;;;;;3.97;2.00;;;;;;;;;;4991778;28;20035;-77
2023/08/12 08:23:21;;;;;;;2.60;1.40;;;;;;;;;;4990067;28;20050;-77
2023/08/12 08:25:48;;;;;;;2.83;1.55;;;;;;;;;;4992771;28;20053;-77
2023/08/12 08:28:14;;;;;;;2.22;1.60;;;;;;;;;;4990781;28;20042;-77
2023/08/12 08:30:41;;;;;;;2.58;1.50;;;;;;;;;;4987089;28;20070;-76
2023/08/12 08:33:08;;;;;;;2.92;1.70;;;;;;;;;;4988175;28;20495;-77
2023/08/12 08:35:35;;;;;;;4.07;1.50;;;;;;;;;;4989944;28;20058;-76
2023/08/12 08:38:02;;;;;;;4.50;1.70;;;;;;;;;;4990475;28;20265;-79
2023/08/12 08:40:28;;;;;;;3.80;1.50;;;;;;;;;;4988579;28;20587;-78
2023/08/12 08:42:57;;;;;;;2.28;1.50;;;;;;;;;;4987022;28;20062;-78
2023/08/12 08:45:24;;;;;;;3.00;1.35;;;;;;;;;;4971779;28;20405;-78
2023/08/12 08:47:51;;;;;;;3.60;1.30;;;;;;;;;;4988360;28;20042;-79
2023/08/12 08:50:18;;;;;;;2.25;1.67;;;;;;;;;;4990303;28;20058;-79
2023/08/12 08:52:45;;;;;;;2.60;2.00;;;;;;;;;;4991083;28;20070;-80
2023/08/12 08:55:15;;;;;;;2.92;1.77;;;;;;;;;;4991179;28;20046;-79
2023/08/12 08:57:43;;;;;;;1.83;1.40;;;;;;;;;;4991634;28;20507;-79
2023/08/12 09:00:14;;;;;;;2.72;1.40;;;;;;;;;;4991176;28;20044;-77
2023/08/12 09:02:45;;;;;;;3.67;1.50;;;;;;;;;;4990265;28;20046;-79
2023/08/12 09:05:14;;;;;;;3.83;1.55;;;;;;;;;;4991210;28;20046;-78
2023/08/12 09:07:41;;;;;;;2.63;1.50;;;;;;;;;;4991298;28;20554;-79
2023/08/12 09:10:08;;;;;;;1.90;1.33;;;;;;;;;;4991745;28;20129;-79
2023/08/12 09:12:36;;;;;;;2.42;1.50;;;;;;;;;;4988806;28;20073;-79
2023/08/12 09:15:04;;;;;;;2.50;1.60;;;;;;;;;;4991816;28;20051;-78
2023/08/12 09:17:32;;;;;;;2.90;1.40;;;;;;;;;;4989661;28;20092;-78
2023/08/12 09:19:59;;;;;;;2.47;1.60;;;;;;;;;;4990031;28;20510;-78
2023/08/12 09:22:26;;;;;;;4.03;1.60;;;;;;;;;;4990608;28;20053;-78
2023/08/12 09:24:56;;;;;;;2.85;1.55;;;;;;;;;;4990906;28;20604;-79
2023/08/12 09:27:23;;;;;;;2.78;1.60;;;;;;;;;;4989676;28;20424;-79
2023/08/12 09:29:49;;;;;;;4.35;1.60;;;;;;;;;;4988368;28;20042;-79
2023/08/12 09:32:19;;;;;;;2.00;1.30;;;;;;;;;;4987105;28;20058;-78
2023/08/12 09:34:47;;;;;;;2.55;1.67;;;;;;;;;;4991677;28;20053;-79
2023/08/12 09:37:15;;;;;;;7.70;1.67;;;;;;;;;;4993873;28;20065;-79
2023/08/12 09:39:41;;;;;;;2.17;1.35;;;;;;;;;;4978858;28;20053;-79
2023/08/12 09:42:08;;;;;;;3.88;1.67;;;;;;;;;;4996891;28;20046;-78
2023/08/12 09:44:36;;;;;;;6.28;1.70;;;;;;;;;;4981120;28;20047;-79
2023/08/12 09:47:03;;;;;;;2.17;1.35;;;;;;;;;;4989553;28;20050;-79
2023/08/12 09:49:30;;;;;;;1.98;1.25;;;;;;;;;;4995474;28;20074;-78
2023/08/12 09:51:57;;;;;;;1.63;1.20;;;;;;;;;;4996506;28;20046;-79
2023/08/12 09:54:25;;;;;;;2.17;1.45;;;;;;;;;;4994028;28;20050;-79
2023/08/12 09:56:56;;;;;;;2.92;1.40;;;;;;;;;;4991138;28;20062;-78
2023/08/12 09:59:24;;;;;;;1.42;1.13;;;;;;;;;;4994632;28;20496;-79
2023/08/12 10:01:52;;;;;;;2.20;1.20;;;;;;;;;;4992168;28;20118;-78
2023/08/12 10:04:21;;;;;;;1.98;1.15;;;;;;;;;;4993883;28;20070;-79
2023/08/12 10:06:48;;;;;;;3.38;1.20;;;;;;;;;;4994220;28;20058;-78
2023/08/12 10:09:15;;;;;;;1.30;0.90;;;;;;;;;;4994962;28;20061;-79
2023/08/12 10:11:45;;;;;;;2.08;1.15;;;;;;;;;;4991080;28;20525;-79
2023/08/12 10:14:12;;;;;;;1.20;0.95;;;;;;;;;;4992269;28;20110;-79
2023/08/12 10:16:39;;;;;;;3.80;1.20;;;;;;;;;;4992317;28;20042;-79
2023/08/12 10:19:06;;;;;;;2.08;1.40;;;;;;;;;;4992556;28;20109;-78
2023/08/12 10:21:34;;;;;;;1.45;0.98;;;;;;;;;;4976563;28;20053;-77
2023/08/12 10:24:03;;;;;;;1.48;1.17;;;;;;;;;;4994339;28;20101;-78
2023/08/12 10:26:30;;;;;;;2.40;1.10;;;;;;;;;;4989844;28;20104;-79
2023/08/12 10:28:56;;;;;;;9.82;1.60;;;;;;;;;;4993286;28;20039;-79
2023/08/12 10:31:26;;;;;;;2.55;1.08;;;;;;;;;;4985555;28;20085;-78
2023/08/12 10:33:53;;;;;;;3.10;1.13;;;;;;;;;;4969066;28;20105;-77
2023/08/12 10:36:20;;;;;;;1.60;0.93;;;;;;;;;;4974547;28;20069;-79
2023/08/12 10:38:47;;;;;;;1.35;0.90;;;;;;;;;;4992907;28;20477;-78
2023/08/12 10:41:21;;;;;;;1.05;0.90;;;;;;;;;;4993136;28;20050;-78
2023/08/12 10:44:08;;;;;;;1.25;1.02;;;;;;;;;;4984640;28;20081;-78
2023/08/12 10:46:36;;;;;;;1.42;0.93;;;;;;;;;;4984554;28;21861;-78
2023/08/12 10:49:03;;;;;;;3.85;1.00;;;;;;;;;;4989709;28;20039;-78
2023/08/12 10:51:40;;;;;;;3.28;1.58;;;;;;;;;;4980096;28;20054;-78
2023/08/12 10:54:31;;;;;;;3.03;1.00;;;;;;;;;;4965047;28;20543;-78
2023/08/12 10:57:01;;;;;;;0.98;0.80;;;;;;;;;;4981617;28;20453;-78
2023/08/12 10:59:46;;;;;;;2.30;1.10;;;;;;;;;;4987788;28;20046;-78
2023/08/12 11:02:16;;;;;;;1.85;1.00;;;;;;;;;;4985924;28;20475;-79
2023/08/12 11:04:43;;;;;;;1.48;0.98;;;;;;;;;;4986796;28;20058;-79
2023/08/12 11:07:20;;;;;;;1.33;0.93;;;;;;;;;;4987175;28;20053;-79
2023/08/12 11:09:52;;;;;;;1.10;0.98;;;;;;;;;;4988324;28;20442;-78
2023/08/12 11:12:33;;;;;;;1.92;1.10;;;;;;;;;;4987382;28;20556;-79
2023/08/12 11:15:00;;;;;;;2.38;1.50;;;;;;;;;;4965944;28;20097;-79
2023/08/12 11:17:28;;;;;;;1.92;1.00;;;;;;;;;;4976024;28;20047;-78
2023/08/12 11:19:55;;;;;;;1.63;1.00;;;;;;;;;;4983260;28;20114;-78
2023/08/12 11:22:23;;;;;;;1.10;0.90;;;;;;;;;;4993285;28;20054;-79
2023/08/12 11:24:50;;;;;;;2.00;1.00;;;;;;;;;;4992344;28;20042;-80
2023/08/12 11:27:17;;;;;;;3.45;1.10;;;;;;;;;;4992458;28;20078;-78
2023/08/12 11:29:44;;;;;;;3.15;1.00;;;;;;;;;;4997622;28;20133;-79
2023/08/12 11:32:11;;;;;;;1.52;1.00;;;;;;;;;;4972291;28;20079;-79
2023/08/12 11:34:39;;;;;;;1.17;0.90;;;;;;;;;;4990090;28;20379;-78
2023/08/12 11:37:10;;;;;;;3.70;1.27;;;;;;;;;;4990077;28;20057;-77
2023/08/12 11:39:38;;;;;;;2.05;1.23;;;;;;;;;;4985044;28;22590;-76
2023/08/12 11:42:05;;;;;;;1.60;1.30;;;;;;;;;;4988046;28;20502;-78
2023/08/12 11:44:31;;;;;;;1.80;1.00;;;;;;;;;;4973725;28;20039;-78
2023/08/12 11:46:58;;;;;;;1.85;1.00;;;;;;;;;;4986622;28;20085;-80
2023/08/12 11:49:25;;;;;;;1.25;0.80;;;;;;;;;;4993692;28;20047;-78
2023/08/12 11:51:52;;;;;;;1.77;1.00;;;;;;;;;;4993552;28;20070;-79
2023/08/12 11:54:18;;;;;;;1.58;0.95;;;;;;;;;;4994636;28;20057;-79
2023/08/12 11:56:45;;;;;;;1.60;1.20;;;;;;;;;;4993055;28;20057;-79
2023/08/12 11:59:12;;;;;;;1.67;1.02;;;;;;;;;;5000011;28;20050;-76
2023/08/12 12:01:38;;;;;;;2.70;0.88;;;;;;;;;;4999946;28;21642;-78
2023/08/12 12:04:05;;;;;;;1.25;0.73;;;;;;;;;;4999942;28;20038;-78
2023/08/12 12:06:35;;;;;;;2.00;1.05;;;;;;;;;;4984368;28;20057;-79
2023/08/12 12:09:06;;;;;;;1.20;0.80;;;;;;;;;;5000070;28;20046;-78
2023/08/12 12:11:33;;;;;;;1.17;0.82;;;;;;;;;;4996618;28;20370;-77
2023/08/12 12:14:01;;;;;;;0.98;0.80;;;;;;;;;;4991025;28;20046;-78
2023/08/12 12:16:39;;;;;;;1.23;0.70;;;;;;;;;;4989360;28;20073;-78
2023/08/12 12:19:13;;;;;;;3.53;0.70;;;;;;;;;;4991746;28;20050;-77
2023/08/12 12:21:42;;;;;;;1.63;0.90;;;;;;;;;;4996827;28;20077;-77
2023/08/12 12:24:09;;;;;;;2.78;0.73;;;;;;;;;;4989746;28;20511;-78
2023/08/12 12:26:35;;;;;;;1.55;0.70;;;;;;;;;;4987640;28;20112;-78
2023/08/12 12:29:03;;;;;;;1.25;0.85;;;;;;;;;;4990907;28;20057;-77
2023/08/12 12:31:31;;;;;;;1.17;0.90;;;;;;;;;;4989465;28;20046;-78
2023/08/12 12:33:58;;;;;;;0.75;0.70;;;;;;;;;;4969698;28;20039;-78
2023/08/12 12:36:25;;;;;;;1.27;0.80;;;;;;;;;;4971917;28;20074;-79
2023/08/12 12:38:52;;;;;;;0.77;0.65;;;;;;;;;;4991780;28;20081;-79
2023/08/12 12:41:19;;;;;;;0.80;0.70;;;;;;;;;;4989567;28;20058;-78
2023/08/12 12:43:46;;;;;;;1.38;0.80;;;;;;;;;;4982651;28;20039;-78
2023/08/12 12:46:12;;;;;;;1.15;0.68;;;;;;;;;;4980730;28;20043;-79
2023/08/12 12:48:40;;;;;;;1.80;0.80;;;;;;;;;;4991920;28;20046;-79
2023/08/12 12:51:07;;;;;;;0.77;0.77;;;;;;;;;;4990423;28;20057;-78
2023/08/12 12:53:34;;;;;;;2.38;0.80;;;;;;;;;;4974841;28;20104;-77
2023/08/12 12:56:03;;;;;;;0.80;0.68;;;;;;;;;;4989131;28;20043;-77
2023/08/12 12:58:31;;;;;;;1.35;0.90;;;;;;;;;;4990410;28;20049;-78
2023/08/12 13:00:58;;;;;;;3.17;1.08;;;;;;;;;;4989471;28;20245;-78
2023/08/12 13:03:25;;;;;;;1.08;0.98;;;;;;;;;;4989041;28;20054;-77
2023/08/12 13:05:52;;;;;;;1.45;0.90;;;;;;;;;;4989935;28;20058;-77
2023/08/12 13:08:19;;;;;;;1.33;0.93;;;;;;;;;;4973181;28;20558;-78
2023/08/12 13:10:46;;;;;;;1.50;1.00;;;;;;;;;;4993295;28;20097;-79
2023/08/12 13:13:15;;;;;;;2.40;1.00;;;;;;;;;;4993795;28;20414;-78
2023/08/12 13:15:42;;;;;;;1.55;0.98;;;;;;;;;;4991659;28;20038;-77
2023/08/12 13:18:09;;;;;;;1.20;0.90;;;;;;;;;;4992500;28;20077;-78
2023/08/12 13:20:37;;;;;;;1.45;1.10;;;;;;;;;;4993434;28;20038;-78
2023/08/12 13:23:04;;;;;;;2.17;1.00;;;;;;;;;;4993695;28;20054;-77
2023/08/12 13:25:33;;;;;;;1.20;0.90;;;;;;;;;;4975098;28;20054;-77
2023/08/12 13:28:01;;;;;;;1.20;1.00;;;;;;;;;;4993102;28;20050;-77
2023/08/12 13:30:32;;;;;;;1.20;1.10;;;;;;;;;;4985656;28;20452;-78
2023/08/12 13:32:58;;;;;;;3.55;1.23;;;;;;;;;;4999244;28;20438;-77
2023/08/12 13:35:27;;;;;;;1.15;0.90;;;;;;;;;;4992712;28;20047;-77
2023/08/12 13:37:54;;;;;;;1.73;1.20;;;;;;;;;;4984170;28;20039;-78
2023/08/12 13:40:21;;;;;;;3.05;1.17;;;;;;;;;;4990747;28;20065;-77
2023/08/12 13:42:48;;;;;;;1.17;0.90;;;;;;;;;;4992025;28;20046;-77
2023/08/12 13:45:14;;;;;;;1.98;1.20;;;;;;;;;;4982504;28;20042;-78
2023/08/12 13:47:41;;;;;;;1.50;1.30;;;;;;;;;;4974949;28;20073;-78
2023/08/12 13:50:08;;;;;;;1.35;1.10;;;;;;;;;;4992743;28;20051;-77
2023/08/12 13:52:35;;;;;;;1.80;1.40;;;;;;;;;;4993091;28;20058;-78
2023/08/12 13:55:02;;;;;;;1.88;1.23;;;;;;;;;;4991659;28;20043;-77
2023/08/12 13:57:29;;;;;;;1.67;1.10;;;;;;;;;;4991336;28;20046;-77
2023/08/12 13:59:56;;;;;;;1.67;1.30;;;;;;;;;;4994220;28;20046;-78
2023/08/12 14:02:23;;;;;;;1.77;1.10;;;;;;;;;;4992768;28;20066;-78
2023/08/12 14:04:49;;;;;;;1.60;1.00;;;;;;;;;;4993278;28;20065;-78
2023/08/12 14:07:16;;;;;;;2.92;1.05;;;;;;;;;;4991272;28;20065;-78
2023/08/12 14:09:43;;;;;;;1.13;0.95;;;;;;;;;;4976055;28;20121;-78
2023/08/12 14:12:10;;;;;;;2.00;0.98;;;;;;;;;;4991484;28;20042;-76
2023/08/12 14:14:37;;;;;;;1.60;1.10;;;;;;;;;;4992804;28;20053;-78
2023/08/12 14:17:04;;;;;;;2.25;1.20;;;;;;;;;;4990519;28;20046;-78
2023/08/12 14:19:30;;;;;;;1.38;0.90;;;;;;;;;;4993411;28;20050;-78
2023/08/12 14:21:57;;;;;;;1.92;1.13;;;;;;;;;;4978374;28;20581;-78
2023/08/12 14:24:24;;;;;;;2.03;1.23;;;;;;;;;;4987738;28;20122;-79
2023/08/12 14:26:50;;;;;;;2.22;1.05;;;;;;;;;;4998926;28;20046;-78
2023/08/12 14:29:17;;;;;;;1.30;1.10;;;;;;;;;;5001174;28;20459;-78
2023/08/12 14:31:44;;;;;;;2.42;1.30;;;;;;;;;;5002137;28;20101;-78
2023/08/12 14:34:10;;;;;;;1.77;1.30;;;;;;;;;;5000553;28;20046;-78
2023/08/12 14:36:37;;;;;;;1.95;1.20;;;;;;;;;;4996167;28;20097;-78
2023/08/12 14:39:04;;;;;;;1.90;1.38;;;;;;;;;;5000454;28;20050;-77
2023/08/12 14:41:31;;;;;;;2.08;1.10;;;;;;;;;;4996387;28;20108;-78
2023/08/12 14:43:58;;;;;;;1.70;1.27;;;;;;;;;;4989288;28;20047;-78
2023/08/12 14:46:24;;;;;;;1.40;1.05;;;;;;;;;;4984641;28;20491;-79